Time;durP1;ratioP1;P1;durP2;ratioP2;P2;SDS_P1;SDS_P2;PMS_P1;PMS_P2;Temp;Humidity;BMP_temperature;BMP_pressure;BME280_temperature;BME280_humidity;BME280_pressure;Samples;Min_cycle;Max_cycle;Signal;HPM_P1;HPM_P2
2021/03/16 00:00:40;;;;;;;4.27;3.67;;;;;;;;;;5084164;28;20410;-84
2021/03/16 00:03:06;;;;;;;4.37;3.30;;;0.90;99.90;;;;;;5083278;28;20444;-84
2021/03/16 00:05:32;;;;;;;5.03;3.73;;;0.80;99.90;;;;;;5083335;28;20218;-84
2021/03/16 00:07:58;;;;;;;4.57;4.10;;;;;;;;;;5101138;28;20192;-87
2021/03/16 00:10:24;;;;;;;4.57;3.40;;;;;;;;;;5082658;28;20231;-84
2021/03/16 00:12:50;;;;;;;4.80;4.17;;;;;;;;;;5081195;28;20904;-84
2021/03/16 00:15:16;;;;;;;4.47;4.07;;;;;;;;;;5081501;28;20931;-84
2021/03/16 00:17:42;;;;;;;6.53;4.17;;;;;;;;;;5081565;28;20417;-84
2021/03/16 00:20:09;;;;;;;7.97;4.30;;;0.80;99.90;;;;;;5081687;28;20923;-84
2021/03/16 00:22:35;;;;;;;6.10;4.40;;;;;;;;;;5100877;28;20485;-84
2021/03/16 00:25:01;;;;;;;5.33;4.40;;;;;;;;;;5082907;28;20795;-84
2021/03/16 00:27:27;;;;;;;4.50;3.50;;;;;;;;;;5082916;28;20414;-84
2021/03/16 00:29:52;;;;;;;6.60;4.07;;;0.90;99.90;;;;;;5081491;28;20819;-85
2021/03/16 00:32:18;;;;;;;4.73;4.00;;;;;;;;;;5079673;28;20187;-84
2021/03/16 00:34:44;;;;;;;3.77;3.43;;;;;;;;;;5086557;28;20266;-84
2021/03/16 00:37:10;;;;;;;6.67;4.43;;;0.90;99.90;;;;;;5098499;28;20484;-83
2021/03/16 00:39:36;;;;;;;4.10;3.70;;;;;;;;;;5102532;28;20164;-83
2021/03/16 00:42:02;;;;;;;8.33;3.50;;;;;;;;;;5091633;28;20172;-84
2021/03/16 00:44:28;;;;;;;3.83;3.17;;;;;;;;;;5083581;28;20410;-84
2021/03/16 00:46:54;;;;;;;7.27;4.40;;;0.90;99.90;;;;;;5082826;28;20449;-85
2021/03/16 00:49:20;;;;;;;4.03;3.53;;;;;;;;;;5083534;28;20226;-84
2021/03/16 00:51:46;;;;;;;4.63;4.13;;;0.90;99.90;;;;;;5083678;28;20176;-84
2021/03/16 00:54:12;;;;;;;7.13;4.77;;;;;;;;;;5102317;28;20187;-84
2021/03/16 00:56:37;;;;;;;6.33;4.03;;;0.90;99.90;;;;;;5101251;28;20216;-84
2021/03/16 00:59:03;;;;;;;6.07;4.60;;;0.80;99.90;;;;;;5082036;28;20244;-84
2021/03/16 01:01:29;;;;;;;6.53;4.23;;;;;;;;;;5081947;28;20717;-84
2021/03/16 01:03:55;;;;;;;6.30;4.27;;;;;;;;;;5082162;28;20180;-84
2021/03/16 01:06:21;;;;;;;9.37;4.83;;;;;;;;;;5100347;28;20422;-84
2021/03/16 01:08:47;;;;;;;7.97;4.17;;;0.70;99.90;;;;;;5082176;28;20511;-84
2021/03/16 01:11:13;;;;;;;8.37;4.00;;;;;;;;;;5082448;28;20551;-84
2021/03/16 01:13:38;;;;;;;5.03;4.03;;;0.90;99.90;;;;;;5081772;28;20180;-84
2021/03/16 01:16:05;;;;;;;6.23;4.03;;;0.90;99.90;;;;;;5100737;28;20670;-84
2021/03/16 01:18:31;;;;;;;4.67;3.80;;;;;;;;;;5081920;28;20266;-84
2021/03/16 01:20:57;;;;;;;8.37;3.53;;;;;;;;;;5082955;28;20777;-83
2021/03/16 01:23:23;;;;;;;6.80;4.27;;;;;;;;;;5100713;28;20394;-84
2021/03/16 01:25:49;;;;;;;5.33;4.30;;;;;;;;;;5083016;28;20456;-84
2021/03/16 01:28:15;;;;;;;6.40;4.57;;;;;;;;;;5083371;28;20501;-84
2021/03/16 01:30:41;;;;;;;5.30;3.43;;;1.00;99.90;;;;;;5083239;28;20490;-84
2021/03/16 01:33:07;;;;;;;9.73;4.23;;;;;;;;;;5083415;28;20270;-83
2021/03/16 01:35:32;;;;;;;7.53;4.97;;;1.00;99.90;;;;;;5101585;28;20221;-84
2021/03/16 01:38:00;;;;;;;4.67;3.83;;;0.90;99.90;;;;;;5083326;28;20190;-84
2021/03/16 01:40:37;;;;;;;9.47;4.20;;;0.90;99.90;;;;;;5083038;28;20630;-84
2021/03/16 01:43:15;;;;;;;7.03;4.60;;;0.90;99.90;;;;;;5101617;28;20416;-84
2021/03/16 01:45:43;;;;;;;6.27;4.40;;;0.90;99.90;;;;;;5083695;28;20601;-84
2021/03/16 01:48:11;;;;;;;7.20;4.87;;;0.90;99.90;;;;;;5084357;28;20463;-84
2021/03/16 01:50:37;;;;;;;4.40;3.43;;;0.90;99.90;;;;;;5083843;28;20476;-84
2021/03/16 01:53:04;;;;;;;7.27;4.73;;;;;;;;;;5085706;28;20414;-84
2021/03/16 01:55:30;;;;;;;8.10;4.63;;;0.90;99.90;;;;;;5106058;28;20824;-84
2021/03/16 01:57:57;;;;;;;7.93;4.80;;;0.90;99.90;;;;;;5105774;28;20458;-83
2021/03/16 02:00:25;;;;;;;7.20;3.90;;;1.00;99.90;;;;;;5087586;28;20418;-83
2021/03/16 02:02:51;;;;;;;7.03;4.07;;;;;;;;;;5087614;28;20442;-84
2021/03/16 02:05:17;;;;;;;7.23;3.80;;;;;;;;;;5087863;28;20473;-84
2021/03/16 02:08:06;;;;;;;5.37;4.13;;;0.90;99.90;;;;;;5087274;28;20441;-84
2021/03/16 02:10:45;;;;;;;4.83;3.80;;;0.90;99.90;;;;;;5105811;28;20798;-84
2021/03/16 02:13:19;;;;;;;8.67;4.13;;;0.90;99.90;;;;;;5106632;28;20912;-84
2021/03/16 02:15:49;;;;;;;8.70;4.87;;;0.90;99.90;;;;;;5088060;28;20437;-84
2021/03/16 02:18:20;;;;;;;6.93;4.20;;;0.90;99.90;;;;;;5087979;28;20414;-84
2021/03/16 02:20:57;;;;;;;6.67;4.40;;;0.80;99.90;;;;;;5087984;28;20406;-84
2021/03/16 02:23:47;;;;;;;8.47;4.80;;;0.80;99.90;;;;;;5105995;28;20406;-84
2021/03/16 02:26:28;;;;;;;10.63;3.93;;;0.90;99.90;;;;;;5086829;28;20449;-84
2021/03/16 02:29:11;;;;;;;5.67;4.27;;;;;;;;;;5086740;28;20538;-84
2021/03/16 02:31:45;;;;;;;6.97;3.93;;;0.90;99.90;;;;;;5087130;28;20421;-84
2021/03/16 02:34:12;;;;;;;7.70;3.70;;;0.90;99.90;;;;;;5086057;28;20432;-84
2021/03/16 02:36:41;;;;;;;4.70;3.80;;;0.90;99.90;;;;;;5086358;28;20501;-84
2021/03/16 02:39:08;;;;;;;4.90;3.90;;;0.90;99.90;;;;;;5105232;28;20439;-84
2021/03/16 02:41:35;;;;;;;6.67;3.73;;;0.90;99.90;;;;;;5086616;28;20505;-84
2021/03/16 02:44:01;;;;;;;5.53;4.13;;;;;;;;;;5086920;28;20421;-84
2021/03/16 02:46:27;;;;;;;4.50;3.77;;;;;;;;;;5086443;28;20434;-84
2021/03/16 02:48:55;;;;;;;8.50;4.43;;;0.90;99.90;;;;;;5086421;28;20457;-84
2021/03/16 02:51:23;;;;;;;6.70;3.40;;;0.90;99.90;;;;;;5086238;28;20414;-84
2021/03/16 02:53:52;;;;;;;5.33;3.37;;;0.90;99.90;;;;;;5086622;28;20421;-84
2021/03/16 02:56:18;;;;;;;6.70;4.33;;;;;;;;;;5105753;28;20432;-85
2021/03/16 02:58:46;;;;;;;5.63;3.40;;;0.80;99.90;;;;;;5086160;28;20455;-84
2021/03/16 03:01:14;;;;;;;3.77;3.27;;;0.80;99.90;;;;;;5104460;28;20414;-84
2021/03/16 03:03:41;;;;;;;6.53;4.10;;;0.80;99.90;;;;;;5104264;28;20406;-84
2021/03/16 03:06:07;;;;;;;6.00;3.77;;;;;;;;;;5102212;28;20454;-84
2021/03/16 03:08:34;;;;;;;7.63;3.83;;;0.80;99.90;;;;;;5083652;28;20986;-84
2021/03/16 03:11:00;;;;;;;5.50;3.60;;;;;;;;;;5102472;28;20464;-84
2021/03/16 03:13:27;;;;;;;7.70;4.03;;;;;;;;;;5083943;28;20442;-84
2021/03/16 03:15:53;;;;;;;8.93;3.37;;;;;;;;;;5083859;28;20430;-84
2021/03/16 03:18:20;;;;;;;4.30;3.50;;;;;;;;;;5083740;28;20517;-84
2021/03/16 03:20:46;;;;;;;5.27;3.50;;;;;;;;;;5101104;28;20394;-84
2021/03/16 03:23:21;;;;;;;7.13;3.80;;;0.90;99.90;;;;;;5082881;28;20919;-84
2021/03/16 03:26:08;;;;;;;5.43;3.50;;;0.90;99.90;;;;;;5100459;28;20475;-84
2021/03/16 03:28:36;;;;;;;5.80;3.10;;;0.80;99.90;;;;;;5082032;28;20417;-84
2021/03/16 03:31:06;;;;;;;4.93;3.20;;;0.80;99.90;;;;;;5080873;28;20445;-84
2021/03/16 03:33:33;;;;;;;9.23;3.07;;;0.80;99.90;;;;;;5098668;28;20406;-84
2021/03/16 03:36:02;;;;;;;9.77;3.53;;;0.80;99.90;;;;;;5092917;28;20442;-84
2021/03/16 03:38:31;;;;;;;4.87;3.67;;;0.80;99.90;;;;;;5104097;28;20410;-85
2021/03/16 03:40:58;;;;;;;4.70;2.97;;;0.80;99.90;;;;;;5103217;28;20509;-85
2021/03/16 03:43:24;;;;;;;4.83;3.47;;;;;;;;;;5085657;28;20410;-85
2021/03/16 03:45:52;;;;;;;4.97;3.27;;;0.80;99.90;;;;;;5103429;28;20433;-85
2021/03/16 03:48:20;;;;;;;4.80;3.27;;;0.80;99.90;;;;;;5085700;28;20425;-85
2021/03/16 03:50:51;;;;;;;6.27;3.00;;;0.80;99.90;;;;;;5103628;28;20453;-85
2021/03/16 03:53:18;;;;;;;5.60;3.50;;;0.80;99.90;;;;;;5085030;28;20427;-85
2021/03/16 03:55:45;;;;;;;4.90;4.03;;;0.80;99.90;;;;;;5103122;28;20426;-85
2021/03/16 03:58:11;;;;;;;8.27;3.30;;;0.80;99.90;;;;;;5085523;28;20426;-85
2021/03/16 04:00:37;;;;;;;6.37;3.60;;;;;;;;;;5084730;28;20424;-85
2021/03/16 04:03:05;;;;;;;6.47;3.37;;;0.80;99.90;;;;;;5085777;28;20410;-85
2021/03/16 04:05:31;;;;;;;7.73;3.27;;;0.70;99.90;;;;;;5102768;28;20479;-85
2021/03/16 04:07:58;;;;;;;7.53;3.60;;;0.80;99.90;;;;;;5083707;28;20430;-85
2021/03/16 04:10:24;;;;;;;7.03;3.40;;;0.80;99.90;;;;;;5102361;28;21018;-85
2021/03/16 04:12:52;;;;;;;6.57;3.60;;;0.80;99.90;;;;;;5084692;28;20782;-85
2021/03/16 04:15:18;;;;;;;8.17;3.23;;;;;;;;;;5102861;28;20433;-85
2021/03/16 04:17:45;;;;;;;5.47;2.40;;;0.70;99.90;;;;;;5084027;28;20414;-85
2021/03/16 04:20:13;;;;;;;7.23;3.10;;;0.70;99.90;;;;;;5102769;28;20444;-85
2021/03/16 04:22:39;;;;;;;3.43;3.13;;;;;;;;;;5085081;28;20414;-85
2021/03/16 04:25:06;;;;;;;4.80;3.57;;;0.70;99.90;;;;;;5084884;28;20430;-85
2021/03/16 04:27:33;;;;;;;6.73;3.40;;;;;;;;;;5085042;28;20429;-85
2021/03/16 04:29:59;;;;;;;5.90;3.30;;;;;;;;;;5103953;28;20454;-85
2021/03/16 04:32:25;;;;;;;2.80;2.17;;;0.60;99.90;;;;;;5103303;28;20410;-85
2021/03/16 04:34:52;;;;;;;5.30;2.90;;;;;;;;;;5103808;28;20180;-85
2021/03/16 04:37:18;;;;;;;5.33;3.13;;;;;;;;;;5102771;28;20176;-85
2021/03/16 04:39:44;;;;;;;6.37;3.20;;;;;;;;;;5102711;28;20407;-85
2021/03/16 04:42:10;;;;;;;6.20;3.53;;;;;;;;;;5085183;28;20501;-85
2021/03/16 04:44:42;;;;;;;4.57;3.00;;;0.80;99.90;;;;;;5085886;28;20421;-85
2021/03/16 04:47:08;;;;;;;4.97;3.30;;;1.50;99.90;;;;;;5085192;28;20406;-85
2021/03/16 04:49:33;;;;;;;7.97;3.83;;;0.90;99.90;;;;;;5085330;28;20469;-85
2021/03/16 04:51:59;;;;;;;6.40;3.97;;;;;;;;;;5085739;28;20176;-85
2021/03/16 04:54:26;;;;;;;5.40;3.67;;;0.80;99.90;;;;;;5085950;28;20182;-85
2021/03/16 04:56:52;;;;;;;6.43;3.83;;;;;;;;;;5086377;28;20208;-85
2021/03/16 04:59:18;;;;;;;6.30;3.57;;;0.80;99.90;;;;;;5104919;28;20414;-85
2021/03/16 05:01:44;;;;;;;6.77;3.70;;;;;;;;;;5087088;28;20180;-85
2021/03/16 05:04:10;;;;;;;6.97;3.77;;;;;;;;;;5087361;28;20622;-85
2021/03/16 05:06:36;;;;;;;4.97;3.43;;;;;;;;;;5087581;28;20480;-85
2021/03/16 05:09:02;;;;;;;10.80;5.00;;;;;;;;;;5086627;28;20458;-85
2021/03/16 05:11:28;;;;;;;7.40;5.43;;;;;;;;;;5104919;28;20406;-85
2021/03/16 05:13:53;;;;;;;7.83;3.83;;;0.80;99.90;;;;;;5083348;28;20413;-85
2021/03/16 05:16:21;;;;;;;5.53;4.20;;;;;;;;;;5083531;28;20204;-85
2021/03/16 05:18:47;;;;;;;6.60;4.77;;;;;;;;;;5102320;28;20177;-85
2021/03/16 05:21:13;;;;;;;9.07;5.60;;;;;;;;;;5083445;28;20414;-85
2021/03/16 05:23:38;;;;;;;8.87;6.20;;;0.60;99.90;;;;;;5083334;28;20446;-85
2021/03/16 05:26:04;;;;;;;10.70;7.33;;;0.60;99.90;;;;;;5083516;28;20299;-84
2021/03/16 05:28:30;;;;;;;12.67;6.17;;;0.60;99.90;;;;;;5082620;28;20577;-85
2021/03/16 05:30:56;;;;;;;7.80;4.47;;;;;;;;;;5101574;28;20221;-85
2021/03/16 05:33:22;;;;;;;5.47;4.30;;;;;;;;;;5083542;28;20195;-85
2021/03/16 05:35:48;;;;;;;4.90;3.87;;;0.60;99.90;;;;;;5082856;28;20438;-85
2021/03/16 05:38:14;;;;;;;4.73;4.00;;;;;;;;;;5082314;28;20420;-85
2021/03/16 05:40:41;;;;;;;8.37;4.17;;;0.60;99.90;;;;;;5101751;28;20267;-85
2021/03/16 05:43:07;;;;;;;3.67;3.20;;;;;;;;;;5101057;28;20463;-85
2021/03/16 05:45:33;;;;;;;8.53;4.30;;;;;;;;;;5082773;28;20939;-85
2021/03/16 05:48:00;;;;;;;7.17;3.90;;;;;;;;;;5082602;28;20471;-84
2021/03/16 05:50:26;;;;;;;8.40;4.47;;;;;;;;;;5082728;28;20462;-85
2021/03/16 05:52:55;;;;;;;6.03;3.57;;;0.70;99.90;;;;;;5081143;28;20426;-84
2021/03/16 05:55:23;;;;;;;6.43;4.10;;;0.70;99.90;;;;;;5098553;28;20928;-85
2021/03/16 05:57:52;;;;;;;6.43;3.73;;;0.70;99.90;;;;;;5080321;28;20410;-84
2021/03/16 06:00:18;;;;;;;9.63;4.23;;;0.70;99.90;;;;;;5081444;28;20425;-84
2021/03/16 06:02:44;;;;;;;5.33;3.63;;;;;;;;;;5080131;28;20421;-84
2021/03/16 06:05:12;;;;;;;7.77;4.13;;;0.80;99.90;;;;;;5080866;28;20790;-84
2021/03/16 06:07:38;;;;;;;6.40;3.60;;;;;;;;;;5098188;28;20456;-85
2021/03/16 06:10:04;;;;;;;5.13;3.93;;;0.60;99.90;;;;;;5080185;28;20457;-84
2021/03/16 06:12:32;;;;;;;5.70;4.03;;;0.70;99.90;;;;;;5079409;28;20410;-84
2021/03/16 06:15:12;;;;;;;8.30;4.03;;;0.70;99.90;;;;;;5079542;28;20442;-84
2021/03/16 06:17:51;;;;;;;7.43;5.07;;;0.70;99.90;;;;;;5097331;28;20902;-84
2021/03/16 06:20:35;;;;;;;5.57;4.43;;;0.60;99.90;;;;;;5079359;28;20410;-84
2021/03/16 06:23:10;;;;;;;9.27;4.90;;;1.30;99.90;;;;;;5096636;28;20420;-84
2021/03/16 06:25:41;;;;;;;4.90;3.67;;;0.50;99.90;;;;;;5095876;28;20425;-84
2021/03/16 06:28:09;;;;;;;4.57;3.57;;;0.50;99.90;;;;;;5077656;28;20403;-84
2021/03/16 06:30:36;;;;;;;7.23;4.70;;;0.40;99.90;;;;;;5088080;28;20465;-85
2021/03/16 06:33:03;;;;;;;7.77;4.40;;;;;;;;;;5099863;28;20510;-85
2021/03/16 06:35:29;;;;;;;9.20;4.57;;;;;;;;;;5117926;28;20407;-86
2021/03/16 06:38:01;;;;;;;3.57;3.17;;;;;;;;;;5101948;28;20425;-85
2021/03/16 06:40:29;;;;;;;6.90;4.40;;;0.40;99.90;;;;;;5084519;28;20410;-84
2021/03/16 06:43:10;;;;;;;5.57;3.90;;;0.40;99.90;;;;;;5084758;28;20418;-85
2021/03/16 06:45:39;;;;;;;5.07;3.67;;;0.50;99.90;;;;;;5103443;28;20429;-85
2021/03/16 06:48:24;;;;;;;5.47;4.00;;;1.00;99.90;;;;;;5084572;28;20422;-85
2021/03/16 06:50:52;;;;;;;5.13;4.53;;;0.60;99.90;;;;;;5085134;28;20452;-85
2021/03/16 06:53:20;;;;;;;5.03;3.13;;;0.70;99.90;;;;;;5084677;28;20418;-85
2021/03/16 06:55:56;;;;;;;5.87;4.03;;;0.80;99.90;;;;;;5084747;28;20430;-85
2021/03/16 06:58:23;;;;;;;5.63;4.00;;;0.90;99.90;;;;;;5084731;28;20471;-85
2021/03/16 07:00:50;;;;;;;9.03;4.27;;;;;;;;;;5085062;28;20453;-85
2021/03/16 07:03:17;;;;;;;8.37;4.47;;;;;;;;;;5084959;28;20402;-85
2021/03/16 07:05:45;;;;;;;9.83;3.90;;;1.00;99.90;;;;;;5084787;28;20445;-86
2021/03/16 07:08:13;;;;;;;6.90;4.57;;;1.10;99.90;;;;;;5085684;28;20532;-85
2021/03/16 07:10:41;;;;;;;5.73;4.20;;;1.10;99.90;;;;;;5086400;28;20854;-85
2021/03/16 07:13:07;;;;;;;6.07;4.07;;;;;;;;;;5084760;28;20414;-85
2021/03/16 07:15:33;;;;;;;7.13;4.37;;;;;;;;;;5085253;28;20433;-85
2021/03/16 07:18:00;;;;;;;4.80;4.20;;;1.30;99.90;;;;;;5084770;28;20460;-84
2021/03/16 07:20:34;;;;;;;8.13;4.53;;;1.20;99.90;;;;;;5103149;28;20418;-84
2021/03/16 07:23:01;;;;;;;7.77;4.50;;;1.10;99.90;;;;;;5085416;28;20411;-85
2021/03/16 07:25:28;;;;;;;6.57;4.13;;;1.10;99.90;;;;;;5102914;28;20483;-84
2021/03/16 07:27:54;;;;;;;7.33;4.10;;;;;;;;;;5102907;28;20493;-84
2021/03/16 07:30:20;;;;;;;5.83;3.17;;;1.10;99.90;;;;;;5084908;28;20454;-84
2021/03/16 07:32:46;;;;;;;7.30;4.27;;;;;;;;;;5102649;28;20412;-84
2021/03/16 07:35:12;;;;;;;4.37;3.90;;;;;;;;;;5082317;28;20524;-84
2021/03/16 07:37:39;;;;;;;7.17;4.10;;;;;;;;;;5081193;28;20412;-84
2021/03/16 07:40:07;;;;;;;5.60;4.03;;;1.00;99.90;;;;;;5081951;28;20425;-84
2021/03/16 07:42:33;;;;;;;4.77;4.30;;;;;;;;;;5100242;28;20414;-84
2021/03/16 07:44:59;;;;;;;5.87;4.03;;;0.90;99.90;;;;;;5081336;28;20426;-84
2021/03/16 07:47:38;;;;;;;6.23;3.83;;;0.80;99.90;;;;;;5100069;28;20391;-84
2021/03/16 07:50:06;;;;;;;4.10;3.57;;;0.70;99.90;;;;;;5099630;28;20975;-84
2021/03/16 07:52:46;;;;;;;5.60;3.90;;;0.70;99.90;;;;;;5081551;28;20904;-84
2021/03/16 07:55:25;;;;;;;8.33;4.43;;;0.70;99.90;;;;;;5081693;28;20537;-84
2021/03/16 07:57:50;;;;;;;4.47;3.27;;;0.70;99.90;;;;;;5100215;28;20778;-84
2021/03/16 08:00:26;;;;;;;3.30;3.00;;;1.20;99.90;;;;;;5100323;28;20414;-84
2021/03/16 08:03:03;;;;;;;5.93;4.57;;;0.90;99.90;;;;;;5100299;28;20617;-84
2021/03/16 08:05:43;;;;;;;5.00;4.20;;;0.90;99.90;;;;;;5081411;28;20441;-84
2021/03/16 08:08:17;;;;;;;6.23;3.73;;;1.50;99.90;;;;;;5081545;28;20472;-83
2021/03/16 08:10:43;;;;;;;6.80;4.53;;;0.90;99.90;;;;;;5081639;28;20458;-84
2021/03/16 08:13:17;;;;;;;6.60;3.13;;;0.80;99.90;;;;;;5099782;28;20406;-84
2021/03/16 08:15:48;;;;;;;9.53;3.87;;;0.90;99.90;;;;;;5100573;28;20517;-84
2021/03/16 08:18:27;;;;;;;3.37;2.57;;;0.90;99.90;;;;;;5082190;28;20407;-84
2021/03/16 08:20:54;;;;;;;5.53;3.73;;;0.90;99.90;;;;;;5082680;28;20442;-83
2021/03/16 08:23:30;;;;;;;4.80;3.40;;;2.00;99.90;;;;;;5100872;28;20787;-83
2021/03/16 08:25:56;;;;;;;4.87;4.03;;;;;;;;;;5082935;28;20437;-83
2021/03/16 08:28:23;;;;;;;5.97;3.40;;;1.00;99.90;;;;;;5100746;28;20406;-83
2021/03/16 08:30:49;;;;;;;5.70;3.20;;;;;;;;;;5083017;28;20457;-83
2021/03/16 08:33:15;;;;;;;7.87;3.50;;;0.80;99.90;;;;;;5082495;28;20434;-83
2021/03/16 08:35:55;;;;;;;4.40;3.57;;;0.70;99.90;;;;;;5101950;28;20912;-83
2021/03/16 08:38:29;;;;;;;9.00;3.50;;;0.70;99.90;;;;;;5082632;28;20830;-83
2021/03/16 08:41:13;;;;;;;6.73;4.17;;;0.70;99.90;;;;;;5083810;28;20422;-83
2021/03/16 08:43:42;;;;;;;6.67;3.97;;;0.70;99.90;;;;;;5083502;28;20437;-83
2021/03/16 08:46:11;;;;;;;6.50;3.83;;;;;;;;;;5083742;28;20430;-83
2021/03/16 08:48:37;;;;;;;3.80;3.20;;;;;;;;;;5082020;28;20420;-83
2021/03/16 08:51:03;;;;;;;8.90;4.07;;;0.80;99.90;;;;;;5082151;28;20856;-84
2021/03/16 08:53:28;;;;;;;6.57;4.23;;;0.80;99.90;;;;;;5083142;28;20449;-83
2021/03/16 08:55:54;;;;;;;5.10;4.00;;;1.10;99.90;;;;;;5101375;28;20218;-83
2021/03/16 08:58:23;;;;;;;7.67;4.07;;;1.00;99.90;;;;;;5100036;28;20222;-83
2021/03/16 09:00:49;;;;;;;4.43;3.23;;;1.00;99.90;;;;;;5083266;28;20187;-83
2021/03/16 09:03:15;;;;;;;4.23;2.53;;;;;;;;;;5100432;28;20444;-83
2021/03/16 09:05:42;;;;;;;7.53;3.83;;;;;;;;;;5082301;28;21012;-83
2021/03/16 09:08:09;;;;;;;4.77;2.77;;;1.10;99.90;;;;;;5082458;28;20540;-83
2021/03/16 09:10:35;;;;;;;6.53;3.53;;;1.20;99.90;;;;;;5082102;28;20461;-83
2021/03/16 09:13:01;;;;;;;5.40;3.40;;;1.30;99.90;;;;;;5099826;28;20459;-83
2021/03/16 09:15:27;;;;;;;7.40;3.30;;;;;;;;;;5102705;28;20430;-83
2021/03/16 09:18:05;;;;;;;6.13;3.90;;;2.00;99.90;;;;;;5082646;28;20422;-82
2021/03/16 09:20:34;;;;;;;4.23;3.43;;;2.00;99.90;;;;;;5083132;28;20414;-82
2021/03/16 09:23:06;;;;;;;5.43;3.30;;;2.40;99.90;;;;;;5083194;28;20495;-83
2021/03/16 09:25:38;;;;;;;4.90;3.17;;;2.50;99.90;;;;;;5098580;28;20438;-82
2021/03/16 09:28:11;;;;;;;4.23;3.13;;;2.60;99.90;;;;;;5088440;28;20807;-82
2021/03/16 09:30:44;;;;;;;4.53;3.10;;;3.10;99.90;;;;;;5116880;28;20450;-82
2021/03/16 09:33:11;;;;;;;5.10;2.87;;;3.40;99.90;;;;;;5099294;28;20543;-82
2021/03/16 09:35:38;;;;;;;4.50;2.90;;;3.50;99.90;;;;;;5086353;28;20434;-82
2021/03/16 09:38:05;;;;;;;5.70;3.13;;;3.80;99.90;;;;;;5086037;28;20410;-83
2021/03/16 09:40:33;;;;;;;5.90;2.33;;;3.70;99.90;;;;;;5086782;28;20422;-82
2021/03/16 09:43:00;;;;;;;8.30;3.40;;;3.40;99.90;;;;;;5105077;28;20406;-82
2021/03/16 09:45:29;;;;;;;10.83;4.43;;;3.20;99.90;;;;;;5104872;28;20483;-82
2021/03/16 09:47:55;;;;;;;11.10;5.93;;;3.10;99.90;;;;;;5086225;28;20176;-82
2021/03/16 09:50:28;;;;;;;9.33;5.40;;;3.10;99.90;;;;;;5103279;28;20928;-82
2021/03/16 09:53:03;;;;;;;8.87;4.57;;;3.00;99.90;;;;;;5085412;28;20415;-82
2021/03/16 09:55:29;;;;;;;3.60;2.93;;;2.90;99.90;;;;;;5102918;28;20455;-82
2021/03/16 09:57:55;;;;;;;3.33;3.03;;;2.80;99.90;;;;;;5083975;28;20907;-82
2021/03/16 10:00:22;;;;;;;4.17;2.93;;;2.90;99.90;;;;;;5083616;28;20606;-82
2021/03/16 10:02:48;;;;;;;4.60;3.53;;;2.70;99.90;;;;;;5082663;28;20180;-82
2021/03/16 10:05:17;;;;;;;8.40;2.87;;;2.60;99.90;;;;;;5101053;28;20521;-81
2021/03/16 10:07:49;;;;;;;6.83;3.20;;;2.70;99.90;;;;;;5101493;28;20473;-82
2021/03/16 10:10:16;;;;;;;9.07;3.90;;;2.70;99.90;;;;;;5101068;28;20483;-82
2021/03/16 10:13:02;;;;;;;8.17;3.60;;;2.70;99.90;;;;;;5102297;28;20406;-81
2021/03/16 10:15:29;;;;;;;6.07;4.03;;;2.60;99.90;;;;;;5106017;28;20433;-82
2021/03/16 10:17:58;;;;;;;8.60;4.20;;;2.50;99.90;;;;;;5087692;28;20781;-82
2021/03/16 10:20:40;;;;;;;6.80;3.13;;;2.40;99.90;;;;;;5087940;28;20422;-82
2021/03/16 10:23:12;;;;;;;5.43;2.97;;;2.40;99.90;;;;;;5105732;28;20452;-82
2021/03/16 10:25:38;;;;;;;5.43;3.30;;;2.40;99.90;;;;;;5087202;28;20510;-82
2021/03/16 10:28:09;;;;;;;5.17;2.43;;;2.40;99.90;;;;;;5087470;28;20413;-82
2021/03/16 10:30:43;;;;;;;6.40;2.93;;;2.20;99.90;;;;;;5105764;28;20458;-82
2021/03/16 10:33:10;;;;;;;7.37;3.23;;;2.10;99.90;;;;;;5087942;28;20904;-82
2021/03/16 10:35:37;;;;;;;6.20;3.00;;;2.10;99.90;;;;;;5087199;28;20434;-83
2021/03/16 10:38:05;;;;;;;7.30;2.90;;;2.20;99.90;;;;;;5087129;28;20429;-83
2021/03/16 10:40:32;;;;;;;4.57;3.63;;;2.10;99.90;;;;;;5087616;28;20482;-82
2021/03/16 10:42:58;;;;;;;7.87;3.43;;;2.20;99.90;;;;;;5087578;28;20429;-83
2021/03/16 10:45:25;;;;;;;5.97;3.60;;;2.30;99.90;;;;;;5087226;28;20446;-82
2021/03/16 10:47:50;;;;;;;7.80;3.23;;;2.30;99.90;;;;;;5105342;28;20631;-83
2021/03/16 10:50:17;;;;;;;6.03;2.80;;;3.30;99.90;;;;;;5087181;28;20547;-83
2021/03/16 10:52:42;;;;;;;6.73;3.00;;;2.00;99.90;;;;;;5087463;28;20262;-83
2021/03/16 10:55:09;;;;;;;7.63;3.13;;;2.10;99.90;;;;;;5105351;28;20516;-83
2021/03/16 10:57:35;;;;;;;5.23;3.30;;;2.00;99.90;;;;;;5105578;28;20168;-83
2021/03/16 11:00:03;;;;;;;9.87;3.63;;;2.00;99.90;;;;;;5105046;28;20480;-83
2021/03/16 11:02:28;;;;;;;8.97;3.83;;;1.80;99.90;;;;;;5086325;28;20638;-83
2021/03/16 11:04:54;;;;;;;5.00;3.33;;;1.80;99.90;;;;;;5086014;28;20450;-83
2021/03/16 11:07:20;;;;;;;7.90;3.60;;;1.60;99.90;;;;;;5085152;28;20200;-83
2021/03/16 11:09:46;;;;;;;3.83;3.43;;;1.80;99.90;;;;;;5104194;28;20195;-83
2021/03/16 11:12:12;;;;;;;4.87;3.03;;;1.60;99.90;;;;;;5104081;28;20182;-82
2021/03/16 11:14:38;;;;;;;4.33;3.83;;;1.60;99.90;;;;;;5104613;28;20410;-83
2021/03/16 11:17:04;;;;;;;6.43;3.43;;;1.60;99.90;;;;;;5104102;28;20471;-83
2021/03/16 11:19:29;;;;;;;4.77;3.70;;;1.70;99.90;;;;;;5085336;28;20215;-83
2021/03/16 11:21:55;;;;;;;4.50;3.27;;;1.80;99.90;;;;;;5103160;28;20176;-81
2021/03/16 11:24:21;;;;;;;4.97;3.73;;;2.40;99.90;;;;;;5084433;28;20191;-81
2021/03/16 11:26:46;;;;;;;5.43;3.13;;;2.10;99.90;;;;;;5101752;28;20199;-81
2021/03/16 11:29:12;;;;;;;6.63;3.47;;;2.40;99.90;;;;;;5083631;28;20568;-83
2021/03/16 11:31:38;;;;;;;3.10;2.80;;;2.50;99.90;;;;;;5083602;28;20229;-81
2021/03/16 11:34:04;;;;;;;5.70;3.40;;;2.90;99.90;;;;;;5083312;28;20229;-81
2021/03/16 11:36:30;;;;;;;6.10;3.33;;;3.20;99.90;;;;;;5083565;28;20231;-81
2021/03/16 11:38:56;;;;;;;4.83;3.53;;;3.60;99.90;;;;;;5101161;28;20413;-81
2021/03/16 11:41:21;;;;;;;6.07;3.37;;;3.80;99.90;;;;;;5102140;28;20237;-81
2021/03/16 11:43:48;;;;;;;3.63;3.00;;;4.00;99.90;;;;;;5082853;28;20199;-82
2021/03/16 11:46:13;;;;;;;5.53;3.20;;;4.40;99.90;;;;;;5100497;28;20230;-81
2021/03/16 11:48:39;;;;;;;5.17;2.47;;;4.30;99.90;;;;;;5100677;28;20413;-82
2021/03/16 11:51:05;;;;;;;3.77;2.60;;;4.50;99.90;;;;;;5082686;28;20211;-81
2021/03/16 11:53:31;;;;;;;9.07;2.47;;;4.90;99.90;;;;;;5082274;28;20172;-81
2021/03/16 11:55:58;;;;;;;4.33;2.67;;;4.50;99.90;;;;;;5082790;28;20228;-82
2021/03/16 11:58:24;;;;;;;5.97;2.30;;;4.20;99.90;;;;;;5081886;28;20615;-81
2021/03/16 12:00:50;;;;;;;4.57;2.67;;;3.70;99.90;;;;;;5082078;28;20426;-81
2021/03/16 12:03:16;;;;;;;8.80;2.87;;;3.40;99.90;;;;;;5081205;28;20642;-82
2021/03/16 12:05:41;;;;;;;6.10;2.80;;;3.10;99.90;;;;;;5081562;28;20669;-82
2021/03/16 12:08:08;;;;;;;5.73;2.97;;;3.10;99.90;;;;;;5081588;28;20203;-82
2021/03/16 12:10:34;;;;;;;5.77;3.20;;;3.10;99.90;;;;;;5100297;28;20200;-82
2021/03/16 12:12:59;;;;;;;5.73;3.03;;;2.90;99.90;;;;;;5100167;28;20310;-82
2021/03/16 12:15:25;;;;;;;6.43;3.43;;;2.70;99.90;;;;;;5081581;28;20196;-81
2021/03/16 12:17:51;;;;;;;8.30;3.30;;;2.40;99.90;;;;;;5091846;28;20184;-82
2021/03/16 12:20:17;;;;;;;9.23;3.97;;;2.10;99.90;;;;;;5099105;28;20262;-82
2021/03/16 12:22:44;;;;;;;6.40;3.70;;;2.00;99.90;;;;;;5103866;28;20570;-82
2021/03/16 12:25:11;;;;;;;5.13;3.73;;;2.00;99.90;;;;;;5088724;28;20216;-83
2021/03/16 12:27:36;;;;;;;5.60;3.40;;;2.20;99.90;;;;;;5088641;28;20445;-81
2021/03/16 12:30:08;;;;;;;6.47;4.00;;;2.30;99.90;;;;;;5082047;28;20461;-81
2021/03/16 12:32:38;;;;;;;5.93;3.63;;;2.50;99.90;;;;;;5079497;28;20179;-81
2021/03/16 12:35:09;;;;;;;35.33;15.73;;;2.80;99.90;;;;;;5081066;28;20538;-81
2021/03/16 12:37:36;;;;;;;22.57;11.57;;;3.00;99.90;;;;;;5077997;28;20426;-81
2021/03/16 12:40:03;;;;;;;12.07;7.10;;;3.80;99.90;;;;;;5087316;28;20555;-83
2021/03/16 12:42:30;;;;;;;6.57;4.00;;;3.80;99.90;;;;;;5099883;28;20421;-82
2021/03/16 12:44:56;;;;;;;6.17;3.60;;;3.90;99.90;;;;;;5080497;28;20438;-82
2021/03/16 12:47:24;;;;;;;8.00;4.50;;;3.90;99.90;;;;;;5080008;28;20198;-84
2021/03/16 12:49:51;;;;;;;10.37;4.97;;;3.70;99.90;;;;;;5080877;28;20457;-83
2021/03/16 12:52:17;;;;;;;7.73;3.93;;;3.70;99.90;;;;;;5080393;28;20490;-83
2021/03/16 12:54:43;;;;;;;6.03;3.73;;;3.80;99.90;;;;;;5081175;28;20208;-86
2021/03/16 12:57:09;;;;;;;6.83;4.20;;;4.00;99.90;;;;;;5082703;28;20630;-83
2021/03/16 12:59:34;;;;;;;10.53;6.10;;;4.40;99.90;;;;;;5084328;28;20223;-84
2021/03/16 13:02:00;;;;;;;18.90;8.50;;;4.50;99.90;;;;;;5087144;28;20172;-83
2021/03/16 13:04:27;;;;;;;12.00;6.37;;;4.40;99.90;;;;;;5087539;28;20191;-84
2021/03/16 13:06:53;;;;;;;10.60;5.80;;;4.20;99.90;;;;;;5082529;28;20586;-83
2021/03/16 13:09:19;;;;;;;5.80;3.37;;;4.00;99.90;;;;;;5083078;28;20507;-83
2021/03/16 13:11:45;;;;;;;8.97;5.30;;;3.80;99.90;;;;;;5101170;28;20410;-83
2021/03/16 13:14:11;;;;;;;11.90;6.03;;;3.60;99.90;;;;;;5100890;28;20251;-83
2021/03/16 13:16:38;;;;;;;9.47;5.43;;;3.40;99.90;;;;;;5082180;28;20246;-83
2021/03/16 13:19:04;;;;;;;9.67;5.43;;;3.20;99.90;;;;;;5100138;28;20410;-83
2021/03/16 13:21:31;;;;;;;8.03;5.17;;;3.00;99.90;;;;;;5081918;28;20486;-83
2021/03/16 13:23:57;;;;;;;7.67;3.93;;;2.60;99.90;;;;;;5100778;28;20884;-84
2021/03/16 13:26:23;;;;;;;7.50;4.17;;;2.20;99.90;;;;;;5082441;28;20431;-84